Time;durP1;ratioP1;P1;durP2;ratioP2;P2;SDS_P1;SDS_P2;PMS_P1;PMS_P2;Temp;Humidity;BMP_temperature;BMP_pressure;BME280_temperature;BME280_humidity;BME280_pressure;Samples;Min_cycle;Max_cycle;Signal;HPM_P1;HPM_P2
2021/03/31 00:01:39;;;;;;;16.77;10.63;;;7.80;99.90;;;;;;5000871;28;20022;-67
2021/03/31 00:04:05;;;;;;;17.73;10.00;;;7.80;99.90;;;;;;5000694;28;20032;-66
2021/03/31 00:06:30;;;;;;;22.13;10.20;;;7.70;99.90;;;;;;5000762;28;20045;-67
2021/03/31 00:08:56;;;;;;;21.40;11.07;;;7.70;99.90;;;;;;5000887;28;20038;-67
2021/03/31 00:11:22;;;;;;;25.83;12.13;;;7.70;99.90;;;;;;5000973;28;20120;-67
2021/03/31 00:13:48;;;;;;;23.38;12.15;;;7.80;99.90;;;;;;5001352;28;20120;-67
2021/03/31 00:16:13;;;;;;;22.50;11.18;;;7.80;99.90;;;;;;5000211;28;20064;-67
2021/03/31 00:18:39;;;;;;;26.70;12.27;;;7.80;99.90;;;;;;5001417;28;20034;-67
2021/03/31 00:21:06;;;;;;;30.67;12.52;;;7.80;99.90;;;;;;5001787;28;20502;-67
2021/03/31 00:23:31;;;;;;;18.38;10.48;;;7.90;99.90;;;;;;5000783;28;20030;-69
2021/03/31 00:25:57;;;;;;;19.42;10.27;;;7.90;99.90;;;;;;5001325;28;20038;-67
2021/03/31 00:28:25;;;;;;;21.73;10.65;;;7.90;99.90;;;;;;4983767;28;20044;-67
2021/03/31 00:30:51;;;;;;;21.83;10.98;;;7.80;99.90;;;;;;5016054;28;20541;-67
2021/03/31 00:33:18;;;;;;;22.33;10.88;;;7.70;99.90;;;;;;5001622;28;20033;-67
2021/03/31 00:35:43;;;;;;;19.67;9.68;;;7.60;99.90;;;;;;4997852;28;20031;-67
2021/03/31 00:38:10;;;;;;;19.25;9.80;;;7.70;99.90;;;;;;5001662;28;20550;-67
2021/03/31 00:40:45;;;;;;;27.02;10.57;;;7.70;99.90;;;;;;5000244;28;20045;-67
2021/03/31 00:43:11;;;;;;;20.08;11.13;;;7.70;99.90;;;;;;5001165;28;20045;-67
2021/03/31 00:45:38;;;;;;;21.67;10.75;;;7.70;99.90;;;;;;4997405;28;20041;-67
2021/03/31 00:48:04;;;;;;;19.80;10.27;;;7.60;99.90;;;;;;5000959;28;20041;-67
2021/03/31 00:50:30;;;;;;;25.77;10.63;;;7.50;99.90;;;;;;4998868;28;20041;-66
2021/03/31 00:52:57;;;;;;;22.88;11.05;;;7.40;99.90;;;;;;5000037;28;20869;-67
2021/03/31 00:55:26;;;;;;;21.85;9.95;;;7.40;99.90;;;;;;4994940;28;20037;-67
2021/03/31 00:57:52;;;;;;;17.95;9.88;;;7.30;99.90;;;;;;4998879;28;20080;-67
2021/03/31 01:00:19;;;;;;;26.33;10.80;;;7.20;99.90;;;;;;5000111;28;20038;-67
2021/03/31 01:02:45;;;;;;;22.77;11.05;;;7.20;99.90;;;;;;5000718;28;20096;-67
2021/03/31 01:05:19;;;;;;;19.45;9.90;;;7.10;99.90;;;;;;4999950;28;20022;-67
2021/03/31 01:07:46;;;;;;;21.30;10.27;;;7.10;99.90;;;;;;5000400;28;20026;-67
2021/03/31 01:10:13;;;;;;;22.73;10.68;;;7.10;99.90;;;;;;5000181;28;20109;-67
2021/03/31 01:12:56;;;;;;;22.65;10.63;;;7.00;99.90;;;;;;5003490;28;20494;-67
2021/03/31 01:15:30;;;;;;;22.85;10.77;;;6.90;99.90;;;;;;5003324;28;20607;-67
2021/03/31 01:18:05;;;;;;;24.75;10.82;;;6.80;99.90;;;;;;5000308;28;20030;-67
2021/03/31 01:20:56;;;;;;;20.80;12.38;;;6.80;99.90;;;;;;5002405;28;20134;-66
2021/03/31 01:24:09;;;;;;;21.77;11.10;;;6.70;99.90;;;;;;5017331;28;20038;-67
2021/03/31 01:26:49;;;;;;;18.13;10.60;;;6.60;99.90;;;;;;4950974;28;20091;-67
2021/03/31 01:29:15;;;;;;;22.10;11.98;;;6.60;99.90;;;;;;5004153;28;20036;-67
2021/03/31 01:32:20;;;;;;;19.73;10.90;;;6.50;99.90;;;;;;5016749;28;20424;-69
2021/03/31 01:34:56;;;;;;;19.00;11.20;;;6.50;99.90;;;;;;5001380;28;20316;-67
2021/03/31 01:38:14;;;;;;;21.92;11.75;;;6.40;99.90;;;;;;5004231;28;20804;-67
2021/03/31 01:40:46;;;;;;;22.23;11.95;;;6.50;99.90;;;;;;4960216;28;20050;-67
2021/03/31 01:43:15;;;;;;;24.08;12.00;;;6.60;99.90;;;;;;5002880;28;20047;-67
2021/03/31 01:45:45;;;;;;;25.15;12.45;;;6.50;99.90;;;;;;5003881;28;20044;-67
2021/03/31 01:48:14;;;;;;;24.55;11.77;;;6.50;99.90;;;;;;5002748;28;20033;-67
2021/03/31 01:50:42;;;;;;;22.48;12.75;;;6.50;99.90;;;;;;5003709;28;20042;-67
2021/03/31 01:53:08;;;;;;;24.08;11.75;;;6.50;99.90;;;;;;5006394;28;20041;-67
2021/03/31 01:55:35;;;;;;;24.00;12.02;;;6.60;99.90;;;;;;5006138;28;20720;-68
2021/03/31 01:58:03;;;;;;;22.55;12.50;;;6.50;99.90;;;;;;5006263;28;20038;-67
2021/03/31 02:00:31;;;;;;;29.25;13.35;;;6.50;99.90;;;;;;5004125;28;20053;-67
2021/03/31 02:02:58;;;;;;;25.13;12.60;;;6.50;99.90;;;;;;5001591;28;20065;-67
2021/03/31 02:05:25;;;;;;;28.13;12.88;;;6.50;99.90;;;;;;5016922;28;20046;-67
2021/03/31 02:07:52;;;;;;;23.73;11.95;;;6.50;99.90;;;;;;5001810;28;20038;-67
2021/03/31 02:10:20;;;;;;;21.17;11.48;;;6.40;99.90;;;;;;5001614;28;20104;-67
2021/03/31 02:12:46;;;;;;;24.67;12.02;;;6.30;99.90;;;;;;5017259;28;20557;-67
2021/03/31 02:15:17;;;;;;;21.05;10.93;;;6.10;99.90;;;;;;5015942;28;20445;-67
2021/03/31 02:17:43;;;;;;;19.42;10.50;;;6.10;99.90;;;;;;5002413;28;20568;-66
2021/03/31 02:20:10;;;;;;;22.98;12.52;;;6.00;99.90;;;;;;5001932;28;20030;-67
2021/03/31 02:22:36;;;;;;;21.38;10.93;;;6.00;99.90;;;;;;4993222;28;20119;-67
2021/03/31 02:25:05;;;;;;;24.00;11.93;;;6.00;99.90;;;;;;5002462;28;20034;-67
2021/03/31 02:27:31;;;;;;;26.95;11.07;;;5.90;99.90;;;;;;5004012;28;20417;-66
2021/03/31 02:29:57;;;;;;;23.45;11.25;;;5.80;99.90;;;;;;5001724;28;20048;-66
2021/03/31 02:32:23;;;;;;;24.45;11.95;;;5.70;99.90;;;;;;5000928;28;20072;-66
2021/03/31 02:34:51;;;;;;;25.05;11.00;;;5.60;99.90;;;;;;5002965;28;20124;-66
2021/03/31 02:37:19;;;;;;;24.52;12.10;;;5.60;99.90;;;;;;5001777;28;20046;-66
2021/03/31 02:39:46;;;;;;;27.77;12.70;;;5.70;99.90;;;;;;5004244;28;20034;-66
2021/03/31 02:42:15;;;;;;;27.73;13.85;;;5.80;99.90;;;;;;5008847;28;20258;-67
2021/03/31 02:44:45;;;;;;;21.83;12.60;;;5.70;99.90;;;;;;5002540;28;20041;-66
2021/03/31 02:47:13;;;;;;;25.38;12.55;;;5.70;99.90;;;;;;5002766;28;20045;-67
2021/03/31 02:49:42;;;;;;;22.00;12.95;;;5.70;99.90;;;;;;5003160;28;20038;-67
2021/03/31 02:52:09;;;;;;;30.73;15.00;;;5.60;99.90;;;;;;5001690;28;20045;-66
2021/03/31 02:54:35;;;;;;;24.92;15.02;;;5.50;99.90;;;;;;5000976;28;20124;-66
2021/03/31 02:57:01;;;;;;;25.17;13.88;;;5.50;99.90;;;;;;5000758;28;20132;-66
2021/03/31 02:59:27;;;;;;;28.45;14.23;;;5.60;99.90;;;;;;5001988;28;20072;-66
2021/03/31 03:01:54;;;;;;;26.08;15.95;;;5.60;99.90;;;;;;5002794;28;20116;-66
2021/03/31 03:04:21;;;;;;;33.33;16.00;;;5.60;99.90;;;;;;5003267;28;20459;-66
2021/03/31 03:06:47;;;;;;;24.27;15.10;;;5.50;99.90;;;;;;5001916;28;20034;-66
2021/03/31 03:09:15;;;;;;;23.92;13.90;;;5.50;99.90;;;;;;5017834;28;20069;-66
2021/03/31 03:11:41;;;;;;;26.50;13.70;;;5.50;99.90;;;;;;5002808;28;20056;-66
2021/03/31 03:14:08;;;;;;;25.92;14.13;;;5.50;99.90;;;;;;5003172;28;20528;-66
2021/03/31 03:16:34;;;;;;;25.05;14.02;;;5.50;99.90;;;;;;5002947;28;20034;-66
2021/03/31 03:19:00;;;;;;;32.58;14.98;;;5.50;99.90;;;;;;5003233;28;20137;-66
2021/03/31 03:21:30;;;;;;;26.45;13.82;;;5.50;99.90;;;;;;5002401;28;20037;-66
2021/03/31 03:23:56;;;;;;;28.80;13.52;;;5.50;99.90;;;;;;4999686;28;20034;-66
2021/03/31 03:26:23;;;;;;;32.03;14.43;;;5.50;99.90;;;;;;5002453;28;20042;-66
2021/03/31 03:28:50;;;;;;;24.67;12.88;;;5.60;99.90;;;;;;5016731;28;20036;-67
2021/03/31 03:31:16;;;;;;;24.00;13.30;;;5.40;99.90;;;;;;5001974;28;20034;-66
2021/03/31 03:33:43;;;;;;;26.77;13.93;;;5.30;99.90;;;;;;4999870;28;20040;-66
2021/03/31 03:36:11;;;;;;;26.38;14.43;;;5.20;99.90;;;;;;4999724;28;20452;-66
2021/03/31 03:38:37;;;;;;;36.05;17.42;;;5.20;99.90;;;;;;5002058;28;20029;-66
2021/03/31 03:41:11;;;;;;;32.53;16.17;;;5.10;99.90;;;;;;5017426;28;20556;-67
2021/03/31 03:43:40;;;;;;;28.88;14.73;;;5.10;99.90;;;;;;4998376;28;20030;-67
2021/03/31 03:46:07;;;;;;;37.50;18.42;;;5.20;99.90;;;;;;5012821;28;20030;-66
2021/03/31 03:48:33;;;;;;;38.97;18.02;;;5.30;99.90;;;;;;5010392;28;20037;-67
2021/03/31 03:50:59;;;;;;;40.47;17.98;;;5.40;99.90;;;;;;4996731;28;20486;-66
2021/03/31 03:53:29;;;;;;;45.28;17.80;;;5.40;99.90;;;;;;4997276;28;20045;-67
2021/03/31 03:55:55;;;;;;;30.80;15.68;;;5.50;99.90;;;;;;5001169;28;20038;-67
2021/03/31 03:58:24;;;;;;;35.78;16.70;;;5.50;99.90;;;;;;4997930;28;20033;-67
2021/03/31 04:00:49;;;;;;;32.45;14.68;;;5.50;99.90;;;;;;5001129;28;20037;-67
2021/03/31 04:03:15;;;;;;;34.58;18.77;;;5.60;99.90;;;;;;5000599;28;20022;-66
2021/03/31 04:05:41;;;;;;;37.72;18.33;;;5.60;99.90;;;;;;5001552;28;20375;-67
2021/03/31 04:08:06;;;;;;;42.67;19.08;;;5.50;99.90;;;;;;5003083;28;20053;-66
2021/03/31 04:10:34;;;;;;;31.00;16.30;;;5.40;99.90;;;;;;5002226;28;20038;-67
2021/03/31 04:13:02;;;;;;;31.48;16.40;;;5.40;99.90;;;;;;5016994;28;20795;-67
2021/03/31 04:15:30;;;;;;;37.85;15.57;;;5.30;99.90;;;;;;5000552;28;20485;-67
2021/03/31 04:17:59;;;;;;;34.00;15.13;;;5.20;99.90;;;;;;4999842;28;20406;-67
2021/03/31 04:20:27;;;;;;;28.50;13.73;;;5.10;99.90;;;;;;4997284;28;20036;-67
2021/03/31 04:22:53;;;;;;;23.38;12.98;;;4.90;99.90;;;;;;5015613;28;20092;-67
2021/03/31 04:25:22;;;;;;;20.55;11.18;;;4.80;99.90;;;;;;4996336;28;20096;-67
2021/03/31 04:27:49;;;;;;;21.70;12.15;;;4.80;99.90;;;;;;5002662;28;20529;-67
2021/03/31 04:30:18;;;;;;;32.05;13.05;;;4.80;99.90;;;;;;5001001;28;20133;-66
2021/03/31 04:32:47;;;;;;;30.42;13.98;;;4.90;99.90;;;;;;5000449;28;20041;-67
2021/03/31 04:35:16;;;;;;;36.13;15.57;;;5.00;99.90;;;;;;5000471;28;20042;-67
2021/03/31 04:37:42;;;;;;;33.85;15.68;;;5.20;99.90;;;;;;4999717;28;20053;-67
2021/03/31 04:40:13;;;;;;;28.75;14.45;;;5.20;99.90;;;;;;5001145;28;20025;-66
2021/03/31 04:42:38;;;;;;;25.95;13.55;;;5.20;99.90;;;;;;4996116;28;20462;-67
2021/03/31 04:45:06;;;;;;;27.65;14.45;;;5.10;99.90;;;;;;5002577;28;20026;-66
2021/03/31 04:47:33;;;;;;;28.27;13.82;;;5.00;99.90;;;;;;5000537;28;20026;-67
2021/03/31 04:49:59;;;;;;;29.90;13.35;;;5.00;99.90;;;;;;5000010;28;20612;-67
2021/03/31 04:52:25;;;;;;;30.95;14.45;;;5.00;99.90;;;;;;5003487;28;20038;-67
2021/03/31 04:54:51;;;;;;;29.15;14.57;;;5.00;99.90;;;;;;4986015;28;20163;-67
2021/03/31 04:57:17;;;;;;;36.92;14.10;;;5.20;99.90;;;;;;4999107;28;20679;-67
2021/03/31 04:59:43;;;;;;;28.65;14.55;;;5.20;99.90;;;;;;5003989;28;20049;-67
2021/03/31 05:02:08;;;;;;;31.00;15.13;;;5.30;99.90;;;;;;4999255;28;20037;-67
2021/03/31 05:04:34;;;;;;;25.98;14.52;;;5.40;99.90;;;;;;5002820;28;20026;-67
2021/03/31 05:06:59;;;;;;;31.98;14.75;;;5.40;99.90;;;;;;5018948;28;20758;-67
2021/03/31 05:09:25;;;;;;;31.15;14.85;;;5.50;99.90;;;;;;5003262;28;20042;-67
2021/03/31 05:11:51;;;;;;;28.48;13.85;;;5.50;99.90;;;;;;5002013;28;20027;-66
2021/03/31 05:14:16;;;;;;;32.65;15.75;;;5.60;99.90;;;;;;5001599;28;20092;-67
2021/03/31 05:16:42;;;;;;;36.13;16.23;;;5.70;99.90;;;;;;4999475;28;20034;-67
2021/03/31 05:19:08;;;;;;;32.83;15.05;;;5.80;99.90;;;;;;4999540;28;20617;-67
2021/03/31 05:21:34;;;;;;;38.25;15.73;;;5.90;99.90;;;;;;5002464;28;20678;-67
2021/03/31 05:23:59;;;;;;;36.58;15.95;;;6.00;99.90;;;;;;5000882;28;20034;-66
2021/03/31 05:26:25;;;;;;;35.03;14.82;;;6.20;99.90;;;;;;5000788;28;20506;-67
2021/03/31 05:28:51;;;;;;;34.17;14.82;;;6.30;99.90;;;;;;5000315;28;20048;-67
2021/03/31 05:31:16;;;;;;;34.60;15.25;;;6.40;99.90;;;;;;4998180;28;20045;-67
2021/03/31 05:33:42;;;;;;;43.00;16.35;;;6.40;99.90;;;;;;5003621;28;20049;-66
2021/03/31 05:36:09;;;;;;;35.45;15.20;;;6.50;99.90;;;;;;5002647;28;20034;-67
2021/03/31 05:38:35;;;;;;;31.17;14.98;;;6.60;99.90;;;;;;5002180;28;20121;-67
2021/03/31 05:41:01;;;;;;;33.22;14.23;;;6.60;99.90;;;;;;5001654;28;20092;-67
2021/03/31 05:43:26;;;;;;;33.75;14.82;;;6.70;99.90;;;;;;5019639;28;20026;-67
2021/03/31 05:45:55;;;;;;;30.27;13.30;;;6.80;99.90;;;;;;5003010;28;20046;-66
2021/03/31 05:48:22;;;;;;;28.83;13.90;;;6.90;99.90;;;;;;4997485;28;20486;-67
2021/03/31 05:50:47;;;;;;;27.75;13.55;;;6.90;99.90;;;;;;5003148;28;20030;-66
2021/03/31 05:53:13;;;;;;;28.27;12.38;;;7.00;99.90;;;;;;4998908;28;20033;-66
2021/03/31 05:55:39;;;;;;;26.60;12.60;;;7.00;99.90;;;;;;4998865;28;20192;-67
2021/03/31 05:58:05;;;;;;;24.52;12.07;;;7.00;99.90;;;;;;5002402;28;20021;-67
2021/03/31 06:00:32;;;;;;;22.15;11.88;;;7.10;99.90;;;;;;4995374;28;20098;-67
2021/03/31 06:03:03;;;;;;;21.50;10.32;;;7.10;99.90;;;;;;5001948;28;20623;-67
2021/03/31 06:05:31;;;;;;;21.02;11.20;;;7.10;99.90;;;;;;5002748;28;20545;-67
2021/03/31 06:07:57;;;;;;;21.30;10.52;;;7.00;99.90;;;;;;5000184;28;20037;-68
2021/03/31 06:10:24;;;;;;;26.00;11.27;;;7.10;99.90;;;;;;5002772;28;20082;-68
2021/03/31 06:12:59;;;;;;;18.85;9.73;;;7.10;99.90;;;;;;5000523;28;20037;-67
2021/03/31 06:15:41;;;;;;;33.53;12.13;;;7.10;99.90;;;;;;5002854;28;20089;-67
2021/03/31 06:18:07;;;;;;;24.20;10.77;;;7.30;99.90;;;;;;5001323;28;20034;-67
2021/03/31 06:20:54;;;;;;;24.42;12.10;;;7.40;99.90;;;;;;5001115;28;20063;-67
2021/03/31 06:26:38;;;;;;;27.85;12.80;;;7.80;99.90;;;;;;4999716;28;20541;-68
2021/03/31 06:29:06;;;;;;;19.35;11.32;;;8.00;99.90;;;;;;5000707;28;20120;-67
2021/03/31 06:31:33;;;;;;;20.95;11.25;;;8.10;99.90;;;;;;5002640;28;20030;-67
2021/03/31 06:34:07;;;;;;;25.20;12.50;;;8.30;99.90;;;;;;5001240;28;20042;-67
2021/03/31 06:36:37;;;;;;;20.95;11.48;;;8.40;99.90;;;;;;5001193;28;20073;-67
2021/03/31 06:39:19;;;;;;;21.80;11.32;;;8.60;99.90;;;;;;4999416;28;20037;-67
2021/03/31 06:41:55;;;;;;;27.73;12.15;;;8.70;99.90;;;;;;5001809;28;20072;-67
2021/03/31 06:47:29;;;;;;;27.02;10.40;;;9.20;99.90;;;;;;4998355;28;20100;-67
2021/03/31 06:49:58;;;;;;;26.33;11.48;;;9.40;99.90;;;;;;5018241;28;20489;-67
2021/03/31 06:52:23;;;;;;;32.42;10.73;;;9.50;99.90;;;;;;4999957;28;20454;-68
2021/03/31 06:54:57;;;;;;;22.13;10.18;;;9.70;99.90;;;;;;5003375;28;20037;-67
2021/03/31 06:57:31;;;;;;;27.17;11.70;;;9.80;99.90;;;;;;5003355;28;20069;-67
2021/03/31 07:00:06;;;;;;;27.48;10.65;;;10.10;99.90;;;;;;4998783;28;20415;-67
2021/03/31 07:02:34;;;;;;;24.33;10.60;;;10.40;99.90;;;;;;5002281;28;20660;-68
2021/03/31 07:05:00;;;;;;;27.65;10.85;;;10.60;99.90;;;;;;4998023;28;20488;-67
2021/03/31 07:07:36;;;;;;;22.92;10.20;;;10.60;99.90;;;;;;4999910;28;20041;-67
2021/03/31 07:10:16;;;;;;;22.77;11.10;;;10.80;99.90;;;;;;4998514;28;20163;-67
2021/03/31 07:12:50;;;;;;;31.90;11.93;;;11.00;99.90;;;;;;5001950;28;20037;-67
2021/03/31 07:15:21;;;;;;;21.95;11.15;;;11.20;99.90;;;;;;4994896;28;20066;-67
2021/03/31 07:17:53;;;;;;;27.38;10.30;;;11.40;99.90;;;;;;5002116;28;20513;-66
2021/03/31 07:20:19;;;;;;;33.83;11.45;;;11.60;99.90;;;;;;4998359;28;20112;-66
2021/03/31 07:22:45;;;;;;;30.00;11.18;;;11.70;99.90;;;;;;5001830;28;20030;-67
2021/03/31 07:25:13;;;;;;;24.05;9.45;;;11.90;99.90;;;;;;5000424;28;20049;-67
2021/03/31 07:27:39;;;;;;;22.95;10.52;;;12.20;99.90;;;;;;5016604;28;20381;-67
2021/03/31 07:30:10;;;;;;;30.25;9.82;;;12.40;99.90;;;;;;4998509;28;20072;-67
2021/03/31 07:33:02;;;;;;;17.60;8.85;;;12.60;99.90;;;;;;4997839;28;20038;-68
2021/03/31 07:35:30;;;;;;;19.77;8.85;;;12.80;99.90;;;;;;4994554;28;20068;-68
2021/03/31 07:38:00;;;;;;;26.92;10.18;;;13.00;99.90;;;;;;4998873;28;20164;-65
2021/03/31 07:40:26;;;;;;;25.40;10.13;;;13.40;99.90;;;;;;4995250;28;20141;-66
2021/03/31 07:43:06;;;;;;;32.35;10.65;;;13.40;99.90;;;;;;5000098;28;20061;-65
2021/03/31 07:45:42;;;;;;;21.63;9.70;;;13.70;99.90;;;;;;4993899;28;20439;-66
2021/03/31 07:48:08;;;;;;;22.98;9.88;;;13.80;99.90;;;;;;4997155;28;20034;-66
2021/03/31 07:50:34;;;;;;;21.00;9.88;;;14.00;99.90;;;;;;4997321;28;20649;-66
2021/03/31 07:53:02;;;;;;;17.98;9.52;;;14.10;99.90;;;;;;4997240;28;20543;-66
2021/03/31 07:55:38;;;;;;;17.80;8.80;;;14.30;99.90;;;;;;4992079;28;20065;-66
2021/03/31 07:58:13;;;;;;;23.15;9.05;;;14.80;99.90;;;;;;4995148;28;20042;-66
2021/03/31 08:00:48;;;;;;;18.70;8.55;;;14.90;99.90;;;;;;4992949;28;20034;-66
2021/03/31 08:03:25;;;;;;;16.75;8.68;;;15.20;99.90;;;;;;4995833;28;20038;-66
2021/03/31 08:06:13;;;;;;;17.15;8.60;;;15.60;99.90;;;;;;4997851;28;20553;-71
2021/03/31 08:08:45;;;;;;;20.42;9.27;;;16.10;99.90;;;;;;4997609;28;20482;-66
2021/03/31 08:11:12;;;;;;;25.48;9.27;;;16.60;99.90;;;;;;5012630;28;20033;-67
2021/03/31 08:13:45;;;;;;;19.60;8.63;;;16.70;99.90;;;;;;4997172;28;20045;-66
2021/03/31 08:16:23;;;;;;;16.65;8.18;;;17.00;99.30;;;;;;4997044;28;20478;-73
2021/03/31 08:18:51;;;;;;;18.13;8.43;;;17.40;98.30;;;;;;5001130;28;20295;-72
2021/03/31 08:21:29;;;;;;;18.88;8.93;;;17.90;97.60;;;;;;5004504;28;20104;-72
2021/03/31 08:23:58;;;;;;;18.15;8.65;;;18.20;96.50;;;;;;5019115;28;20034;-72
2021/03/31 08:26:35;;;;;;;18.52;8.93;;;18.40;96.30;;;;;;5002201;28;20701;-70
2021/03/31 08:29:03;;;;;;;17.90;9.23;;;18.40;93.70;;;;;;5003380;28;20064;-73
2021/03/31 08:31:34;;;;;;;21.00;9.85;;;18.70;92.50;;;;;;5005162;28;20034;-72
2021/03/31 08:34:00;;;;;;;20.20;9.95;;;19.00;87.80;;;;;;5008268;28;20069;-73
2021/03/31 08:36:25;;;;;;;23.02;11.30;;;18.90;89.70;;;;;;5021044;28;20148;-72
2021/03/31 08:38:53;;;;;;;26.38;10.55;;;19.10;84.70;;;;;;5002557;28;20037;-72
2021/03/31 08:41:21;;;;;;;21.08;9.52;;;19.40;85.60;;;;;;5001963;28;20026;-72
2021/03/31 08:43:48;;;;;;;23.67;10.13;;;19.90;77.30;;;;;;5001838;28;20125;-72
2021/03/31 08:46:31;;;;;;;25.98;10.60;;;20.10;74.80;;;;;;5003367;28;20383;-72
2021/03/31 08:48:57;;;;;;;28.17;11.85;;;20.50;71.10;;;;;;5001079;28;20092;-74
2021/03/31 08:51:24;;;;;;;22.48;12.18;;;20.40;68.00;;;;;;5018362;28;20069;-73
2021/03/31 08:53:51;;;;;;;24.67;11.15;;;20.50;64.30;;;;;;5014148;28;20517;-74
2021/03/31 08:56:20;;;;;;;25.08;11.55;;;20.60;61.70;;;;;;4999242;28;20040;-73
2021/03/31 08:58:51;;;;;;;24.73;10.68;;;20.80;59.90;;;;;;5000298;28;20030;-74
2021/03/31 09:01:31;;;;;;;25.70;11.70;;;21.00;56.30;;;;;;5018361;28;20060;-73
2021/03/31 09:04:13;;;;;;;30.35;11.77;;;21.10;56.50;;;;;;5002893;28;20123;-74
2021/03/31 09:06:39;;;;;;;24.75;11.48;;;21.30;54.20;;;;;;5016471;28;20034;-73
2021/03/31 09:09:05;;;;;;;24.55;10.70;;;21.50;53.40;;;;;;5001498;28;20040;-73
2021/03/31 09:11:31;;;;;;;28.38;11.02;;;21.70;52.30;;;;;;5003696;28;20044;-74
2021/03/31 09:14:13;;;;;;;32.83;10.85;;;21.80;52.50;;;;;;5002234;28;20029;-75
2021/03/31 09:16:57;;;;;;;19.27;10.07;;;21.90;51.70;;;;;;4999303;28;20084;-75
2021/03/31 09:19:25;;;;;;;27.35;11.32;;;22.00;52.60;;;;;;5002622;28;20026;-66
2021/03/31 09:21:51;;;;;;;23.00;10.10;;;22.30;51.70;;;;;;5001186;28;20088;-65
2021/03/31 09:24:22;;;;;;;26.60;10.50;;;22.50;52.60;;;;;;5003183;28;20034;-66
2021/03/31 09:27:19;;;;;;;20.17;10.32;;;22.50;51.50;;;;;;5016802;28;20836;-66
2021/03/31 09:29:46;;;;;;;25.98;10.15;;;22.50;50.80;;;;;;4980255;28;20042;-66
2021/03/31 09:32:16;;;;;;;31.83;11.18;;;22.60;50.10;;;;;;4997853;28;20025;-66
2021/03/31 09:34:43;;;;;;;22.23;10.07;;;22.70;48.90;;;;;;5003515;28;20034;-66
2021/03/31 09:37:14;;;;;;;23.63;11.60;;;23.00;49.20;;;;;;4996794;28;20365;-67
2021/03/31 09:39:56;;;;;;;25.20;11.20;;;23.00;49.80;;;;;;4998993;28;20128;-68
2021/03/31 09:42:24;;;;;;;25.92;11.43;;;23.10;48.20;;;;;;4995070;28;20097;-68
2021/03/31 09:44:52;;;;;;;23.98;11.50;;;23.20;47.50;;;;;;5003880;28;20034;-68
2021/03/31 09:47:20;;;;;;;25.65;10.63;;;23.20;48.90;;;;;;4999799;28;20540;-67
2021/03/31 09:49:51;;;;;;;29.08;10.98;;;23.10;47.50;;;;;;4997847;28;20041;-67
2021/03/31 09:52:23;;;;;;;30.33;11.73;;;23.20;47.80;;;;;;4994380;28;20141;-68
2021/03/31 09:54:49;;;;;;;22.92;10.95;;;23.10;47.60;;;;;;4999636;28;20033;-68
2021/03/31 09:57:15;;;;;;;24.77;11.20;;;23.40;47.50;;;;;;5002577;28;20763;-68
2021/03/31 09:59:42;;;;;;;25.75;11.32;;;23.80;47.00;;;;;;5001868;28;20053;-68
2021/03/31 10:02:09;;;;;;;26.23;12.60;;;24.00;46.20;;;;;;5003092;28;20030;-68
2021/03/31 10:04:39;;;;;;;26.42;12.77;;;24.10;45.00;;;;;;5016341;28;20034;-67
2021/03/31 10:07:08;;;;;;;22.50;11.60;;;24.00;45.40;;;;;;4993807;28;20201;-71
2021/03/31 10:09:48;;;;;;;29.83;12.32;;;24.10;47.30;;;;;;4993734;28;20092;-74
2021/03/31 10:12:27;;;;;;;23.67;11.32;;;24.30;46.00;;;;;;5002818;28;20498;-75
2021/03/31 10:14:55;;;;;;;27.80;11.82;;;24.60;46.40;;;;;;4996883;28;20769;-72
2021/03/31 10:17:26;;;;;;;25.42;11.32;;;24.70;44.70;;;;;;5002293;28;20033;-72
2021/03/31 10:19:52;;;;;;;26.35;11.43;;;24.60;44.70;;;;;;5000551;28;20061;-77
2021/03/31 10:22:19;;;;;;;31.52;14.32;;;24.30;44.70;;;;;;4997937;28;20156;-73
2021/03/31 10:24:49;;;;;;;22.90;11.07;;;24.10;45.50;;;;;;4996657;28;20052;-73
2021/03/31 10:27:19;;;;;;;26.20;11.25;;;24.00;45.10;;;;;;4999382;28;20046;-73
2021/03/31 10:29:52;;;;;;;28.48;12.43;;;24.20;46.20;;;;;;4993182;28;20041;-73
2021/03/31 10:32:23;;;;;;;25.92;11.00;;;24.30;44.30;;;;;;4994979;28;20038;-76
2021/03/31 10:34:55;;;;;;;27.08;11.82;;;24.20;43.60;;;;;;4999345;28;20046;-71
2021/03/31 10:37:38;;;;;;;22.40;10.60;;;23.90;45.30;;;;;;4998181;28;20129;-74
2021/03/31 10:40:27;;;;;;;21.17;10.35;;;24.10;45.10;;;;;;4998924;28;20057;-69
2021/03/31 10:48:41;;;;;;;26.02;11.43;;;24.70;42.50;;;;;;4998398;28;20033;-68
2021/03/31 10:54:09;;;;;;;20.92;10.18;;;24.90;42.30;;;;;;4977122;28;20029;-69
2021/03/31 10:56:37;;;;;;;23.63;10.65;;;25.10;41.40;;;;;;4998851;28;20038;-68
2021/03/31 10:59:04;;;;;;;23.48;10.90;;;25.00;41.70;;;;;;4993386;28;20022;-68
2021/03/31 11:01:30;;;;;;;22.45;10.50;;;25.20;40.10;;;;;;4997000;28;20248;-68
2021/03/31 11:03:55;;;;;;;22.33;10.77;;;25.40;39.20;;;;;;4996464;28;20037;-68
2021/03/31 11:06:22;;;;;;;29.27;12.38;;;25.10;40.40;;;;;;4997493;28;20038;-68
2021/03/31 11:08:48;;;;;;;21.30;9.52;;;25.20;40.50;;;;;;4993418;28;20033;-68
2021/03/31 11:11:13;;;;;;;25.50;10.98;;;25.50;42.10;;;;;;4997904;28;20600;-68
2021/03/31 11:13:39;;;;;;;26.88;11.07;;;25.40;40.40;;;;;;4999620;28;20026;-68
2021/03/31 11:16:07;;;;;;;23.60;10.82;;;24.80;40.80;;;;;;4996836;28;20037;-71
2021/03/31 11:26:34;;;;;;;20.33;9.50;;;25.70;39.70;;;;;;4994362;28;20033;-68
2021/03/31 11:28:59;;;;;;;18.75;10.02;;;26.00;39.60;;;;;;5016661;28;20132;-69
2021/03/31 11:31:25;;;;;;;25.17;11.63;;;26.30;39.30;;;;;;4998925;28;20026;-69
2021/03/31 11:33:52;;;;;;;26.38;11.35;;;26.30;37.50;;;;;;5014390;28;20038;-69
2021/03/31 11:36:19;;;;;;;22.67;12.43;;;26.70;38.30;;;;;;4999387;28;20521;-69
2021/03/31 11:38:44;;;;;;;20.90;10.18;;;26.40;37.60;;;;;;5001619;28;20032;-70
2021/03/31 11:41:10;;;;;;;22.08;10.52;;;26.60;38.40;;;;;;4994404;28;20981;-72
2021/03/31 11:43:36;;;;;;;19.50;9.68;;;27.30;37.20;;;;;;5009780;28;20469;-70
2021/03/31 11:46:02;;;;;;;26.08;10.82;;;27.70;37.10;;;;;;4997624;28;20059;-70
2021/03/31 11:48:28;;;;;;;21.35;11.00;;;27.70;38.20;;;;;;4993190;28;20123;-71
2021/03/31 11:50:54;;;;;;;20.38;10.38;;;28.00;36.10;;;;;;4996441;28;20125;-71
2021/03/31 11:53:20;;;;;;;20.45;10.50;;;27.70;36.90;;;;;;4998082;28;20505;-71
2021/03/31 11:55:46;;;;;;;23.35;12.13;;;27.60;37.20;;;;;;4996495;28;20033;-70
2021/03/31 11:58:11;;;;;;;21.02;10.35;;;28.00;36.40;;;;;;4994526;28;20591;-71
2021/03/31 12:00:37;;;;;;;28.45;12.30;;;27.80;37.40;;;;;;4994787;28;20064;-70
2021/03/31 12:03:06;;;;;;;20.83;10.68;;;27.80;36.10;;;;;;4996965;28;20089;-71
2021/03/31 12:05:32;;;;;;;26.70;10.75;;;27.80;37.00;;;;;;4995755;28;20057;-70
2021/03/31 12:07:58;;;;;;;22.08;10.13;;;29.00;35.80;;;;;;4996761;28;20034;-70
2021/03/31 12:10:24;;;;;;;28.92;12.13;;;29.60;35.40;;;;;;4996684;28;20033;-71
2021/03/31 12:12:50;;;;;;;21.52;10.75;;;29.60;35.40;;;;;;4993046;28;20034;-69
2021/03/31 12:15:16;;;;;;;20.45;10.55;;;29.80;34.50;;;;;;5006608;28;20552;-71
2021/03/31 12:17:42;;;;;;;20.20;10.48;;;29.40;34.50;;;;;;4998372;28;20044;-71
2021/03/31 12:20:13;;;;;;;23.65;11.10;;;29.70;34.10;;;;;;4996175;28;20092;-71
2021/03/31 12:22:41;;;;;;;17.33;9.20;;;30.40;34.30;;;;;;4995271;28;20034;-71
2021/03/31 12:25:08;;;;;;;17.67;9.73;;;30.00;33.30;;;;;;4997790;28;20499;-71
2021/03/31 12:27:35;;;;;;;18.40;8.93;;;29.70;33.50;;;;;;5009668;28;20125;-69
2021/03/31 12:30:14;;;;;;;23.55;9.43;;;29.50;34.20;;;;;;5000453;28;20030;-71
2021/03/31 12:32:40;;;;;;;20.27;9.43;;;30.40;32.50;;;;;;5013308;28;20033;-68
2021/03/31 12:35:07;;;;;;;17.33;9.55;;;30.40;32.70;;;;;;4996307;28;20034;-67
2021/03/31 12:37:33;;;;;;;19.65;9.00;;;29.60;34.10;;;;;;4994356;28;20077;-67
2021/03/31 12:39:59;;;;;;;20.65;9.60;;;29.40;34.50;;;;;;4995690;28;20117;-67
2021/03/31 12:42:26;;;;;;;18.00;9.98;;;29.60;33.00;;;;;;4992424;28;20048;-68
2021/03/31 12:44:52;;;;;;;19.50;9.80;;;29.20;33.70;;;;;;4995825;28;20951;-69
2021/03/31 12:47:20;;;;;;;17.95;9.30;;;29.10;34.30;;;;;;4997049;28;20042;-68
2021/03/31 12:49:48;;;;;;;20.77;9.50;;;29.50;35.60;;;;;;4995225;28;20823;-68
2021/03/31 12:52:17;;;;;;;23.38;10.35;;;29.80;33.70;;;;;;4996581;28;20551;-68
2021/03/31 12:57:11;;;;;;;22.38;9.75;;;29.80;34.40;;;;;;4998267;28;20141;-74
2021/03/31 12:59:37;;;;;;;21.83;9.20;;;29.30;33.90;;;;;;4995121;28;20401;-73
2021/03/31 13:02:02;;;;;;;20.70;8.50;;;29.50;33.20;;;;;;4994262;28;20600;-75
2021/03/31 13:04:28;;;;;;;24.85;10.35;;;29.50;32.50;;;;;;4996780;28;20041;-74
2021/03/31 13:06:54;;;;;;;20.13;9.60;;;29.60;31.70;;;;;;4994064;28;20037;-74
2021/03/31 13:09:20;;;;;;;19.05;7.50;;;29.80;31.80;;;;;;5013717;28;20053;-74